Time;durP1;ratioP1;P1;durP2;ratioP2;P2;SDS_P1;SDS_P2;PMS_P1;PMS_P2;Temp;Humidity;BMP_temperature;BMP_pressure;BME280_temperature;BME280_humidity;BME280_pressure;Samples;Min_cycle;Max_cycle;Signal;HPM_P1;HPM_P2
2022/07/27 00:01:05;;;;;;;4.90;1.30;;;15.10;99.90;;;;;;5033066;28;20253;-75
2022/07/27 00:03:31;;;;;;;3.57;1.57;;;15.10;99.90;;;;;;5032725;28;20202;-75
2022/07/27 00:05:57;;;;;;;3.00;1.53;;;15.10;99.90;;;;;;5033511;28;20173;-75
2022/07/27 00:08:22;;;;;;;4.10;1.37;;;15.10;99.90;;;;;;5033263;28;20270;-75
2022/07/27 00:10:49;;;;;;;4.60;1.70;;;15.10;99.90;;;;;;5033165;28;20265;-75
2022/07/27 00:13:15;;;;;;;3.67;1.70;;;15.00;99.90;;;;;;5032532;28;20671;-75
2022/07/27 00:15:41;;;;;;;3.63;1.40;;;15.10;99.90;;;;;;5032909;28;20218;-75
2022/07/27 00:18:07;;;;;;;11.33;2.10;;;15.00;99.90;;;;;;5032860;28;20661;-75
2022/07/27 00:20:32;;;;;;;3.23;1.60;;;15.20;99.90;;;;;;5032656;28;20196;-75
2022/07/27 00:22:58;;;;;;;3.50;1.60;;;15.20;99.90;;;;;;5034051;28;20221;-75
2022/07/27 00:25:27;;;;;;;5.77;1.53;;;15.20;99.90;;;;;;5034082;28;20249;-75
2022/07/27 00:27:55;;;;;;;4.20;1.50;;;15.20;99.90;;;;;;5032934;28;20178;-75
2022/07/27 00:30:21;;;;;;;1.53;1.20;;;14.90;99.90;;;;;;5032893;28;20182;-75
2022/07/27 00:32:47;;;;;;;5.40;1.70;;;14.80;99.90;;;;;;5032792;28;20551;-75
2022/07/27 00:35:12;;;;;;;6.43;1.70;;;14.90;99.90;;;;;;5032694;28;20204;-75
2022/07/27 00:37:38;;;;;;;5.53;1.70;;;14.90;99.90;;;;;;5033975;28;20174;-75
2022/07/27 00:40:06;;;;;;;4.23;1.70;;;14.90;99.90;;;;;;5032601;28;20205;-75
2022/07/27 00:42:32;;;;;;;6.53;2.30;;;15.00;99.90;;;;;;5032413;28;20657;-75
2022/07/27 00:44:58;;;;;;;9.87;2.10;;;15.10;99.90;;;;;;5032384;28;20237;-75
2022/07/27 00:47:25;;;;;;;5.60;1.80;;;14.80;99.90;;;;;;5031816;28;20594;-75
2022/07/27 00:49:51;;;;;;;2.93;1.67;;;15.00;99.90;;;;;;5032427;28;20554;-75
2022/07/27 00:52:17;;;;;;;7.20;1.80;;;14.90;99.90;;;;;;5032253;28;20176;-75
2022/07/27 00:54:44;;;;;;;3.70;1.53;;;14.90;99.90;;;;;;5032560;28;20202;-75
2022/07/27 00:57:11;;;;;;;5.97;1.50;;;15.00;99.90;;;;;;5032333;28;20178;-75
2022/07/27 00:59:37;;;;;;;5.57;1.47;;;14.80;99.90;;;;;;5032310;28;20185;-75
2022/07/27 01:02:04;;;;;;;3.23;1.50;;;14.80;99.90;;;;;;5032091;28;20178;-75
2022/07/27 01:04:30;;;;;;;4.70;1.60;;;14.80;99.90;;;;;;5032073;28;20584;-75
2022/07/27 01:06:56;;;;;;;3.33;1.40;;;14.80;99.90;;;;;;5032219;28;20260;-75
2022/07/27 01:12:09;;;;;;;4.33;1.60;;;14.70;99.90;;;;;;5033433;28;20512;-75
2022/07/27 01:14:38;;;;;;;6.80;2.00;;;14.60;99.90;;;;;;5031351;28;20194;-75
2022/07/27 01:17:03;;;;;;;6.23;1.87;;;14.40;99.90;;;;;;5031672;28;20261;-75
2022/07/27 01:19:29;;;;;;;3.87;1.50;;;14.60;99.90;;;;;;5031517;28;20181;-75
2022/07/27 01:21:55;;;;;;;2.83;1.60;;;14.60;99.90;;;;;;5031719;28;20545;-75
2022/07/27 01:24:20;;;;;;;5.40;1.70;;;14.60;99.90;;;;;;5031528;28;20228;-75
2022/07/27 01:26:46;;;;;;;8.50;1.97;;;14.50;99.90;;;;;;5032044;28;20174;-75
2022/07/27 01:29:12;;;;;;;4.90;1.53;;;14.40;99.90;;;;;;5031705;28;20596;-75
2022/07/27 01:31:38;;;;;;;3.33;1.70;;;14.40;99.90;;;;;;5031413;28;20227;-75
2022/07/27 01:34:04;;;;;;;6.97;2.00;;;14.40;99.90;;;;;;5031510;28;20202;-75
2022/07/27 01:36:30;;;;;;;6.50;2.03;;;14.70;99.90;;;;;;5031582;28;20553;-75
2022/07/27 01:38:55;;;;;;;7.57;2.00;;;14.80;99.90;;;;;;5031309;28;20190;-75
2022/07/27 01:41:21;;;;;;;6.90;1.80;;;14.60;99.90;;;;;;5031454;28;20273;-75
2022/07/27 01:43:47;;;;;;;6.17;1.70;;;14.50;99.90;;;;;;5031284;28;20212;-75
2022/07/27 01:46:12;;;;;;;2.83;1.90;;;14.30;99.90;;;;;;5032681;28;20173;-75
2022/07/27 01:48:38;;;;;;;2.53;1.93;;;14.20;99.90;;;;;;5031431;28;20172;-75
2022/07/27 01:51:04;;;;;;;5.90;2.13;;;13.90;99.90;;;;;;5031424;28;20536;-75
2022/07/27 01:53:29;;;;;;;5.30;1.70;;;13.90;99.90;;;;;;5031075;28;20177;-75
2022/07/27 01:55:55;;;;;;;6.17;1.80;;;13.90;99.90;;;;;;5031281;28;20174;-75
2022/07/27 01:58:21;;;;;;;3.57;1.80;;;14.00;99.90;;;;;;5032459;28;20173;-75
2022/07/27 02:00:48;;;;;;;6.73;1.80;;;14.10;99.90;;;;;;5030802;28;20204;-75
2022/07/27 02:03:14;;;;;;;5.83;2.00;;;14.20;99.90;;;;;;5030761;28;20553;-75
2022/07/27 02:05:40;;;;;;;2.70;1.90;;;14.00;99.90;;;;;;5031965;28;20197;-75
2022/07/27 02:08:06;;;;;;;3.03;1.90;;;13.90;99.90;;;;;;5030582;28;20217;-75
2022/07/27 02:10:33;;;;;;;3.07;1.70;;;13.80;99.90;;;;;;5030706;28;20548;-75
2022/07/27 02:12:59;;;;;;;5.77;1.80;;;13.90;99.90;;;;;;5030022;28;20227;-75
2022/07/27 02:15:27;;;;;;;4.67;2.00;;;13.70;99.90;;;;;;5030460;28;20197;-75
2022/07/27 02:17:53;;;;;;;3.73;2.00;;;13.80;99.90;;;;;;5030795;28;20180;-75
2022/07/27 02:20:22;;;;;;;5.80;2.00;;;13.70;99.90;;;;;;5030589;28;20168;-75
2022/07/27 02:22:49;;;;;;;8.00;3.13;;;13.80;99.90;;;;;;5030594;28;20596;-74
2022/07/27 02:25:17;;;;;;;3.63;2.00;;;13.70;99.90;;;;;;5030806;28;20202;-75
2022/07/27 02:27:43;;;;;;;3.90;2.10;;;13.70;99.90;;;;;;5031103;28;20251;-75
2022/07/27 02:30:10;;;;;;;5.57;2.20;;;13.80;99.90;;;;;;5030714;28;20173;-75
2022/07/27 02:32:36;;;;;;;7.77;2.00;;;13.80;99.90;;;;;;5030577;28;20177;-75
2022/07/27 02:35:02;;;;;;;10.10;2.07;;;13.90;99.90;;;;;;5030617;28;20688;-75
2022/07/27 02:37:28;;;;;;;4.33;2.10;;;13.80;99.90;;;;;;5030595;28;20170;-75
2022/07/27 02:39:54;;;;;;;5.77;1.90;;;13.60;99.90;;;;;;5030588;28;20202;-75
2022/07/27 02:42:19;;;;;;;5.20;2.20;;;13.60;99.90;;;;;;5030460;28;20180;-75
2022/07/27 02:44:45;;;;;;;5.90;2.37;;;13.60;99.90;;;;;;5030456;28;20256;-75
2022/07/27 02:47:11;;;;;;;5.10;1.97;;;13.50;99.90;;;;;;5030680;28;20170;-75
2022/07/27 02:49:37;;;;;;;5.70;2.10;;;13.40;99.90;;;;;;5030588;28;20519;-75
2022/07/27 02:52:04;;;;;;;4.20;2.20;;;13.20;99.90;;;;;;5030403;28;20176;-75
2022/07/27 02:54:31;;;;;;;6.70;2.30;;;13.20;99.90;;;;;;5030437;28;20668;-75
2022/07/27 02:56:58;;;;;;;6.73;2.43;;;13.30;99.90;;;;;;5030562;28;20191;-75
2022/07/27 02:59:24;;;;;;;8.63;2.67;;;13.40;99.90;;;;;;5030412;28;20636;-75
2022/07/27 03:01:50;;;;;;;4.17;2.00;;;13.30;99.90;;;;;;5030260;28;20187;-75
2022/07/27 03:04:17;;;;;;;8.37;2.40;;;13.20;99.90;;;;;;5030205;28;20216;-75
2022/07/27 03:06:43;;;;;;;7.63;1.97;;;13.10;99.90;;;;;;5030418;28;20172;-75
2022/07/27 03:09:09;;;;;;;10.77;2.60;;;13.10;99.90;;;;;;5030407;28;20178;-75
2022/07/27 03:11:35;;;;;;;4.33;2.20;;;13.10;99.90;;;;;;5031952;28;20233;-75
2022/07/27 03:14:01;;;;;;;8.23;2.60;;;13.10;99.90;;;;;;5033626;28;20198;-75
2022/07/27 03:16:26;;;;;;;5.37;2.10;;;13.00;99.90;;;;;;5034316;28;20176;-75
2022/07/27 03:18:52;;;;;;;7.10;2.40;;;13.00;99.90;;;;;;5033810;28;20212;-75
2022/07/27 03:21:18;;;;;;;8.73;2.20;;;12.90;99.90;;;;;;5033366;28;20183;-75
2022/07/27 03:23:43;;;;;;;5.33;2.20;;;13.00;99.90;;;;;;5033944;28;20585;-75
2022/07/27 03:26:09;;;;;;;5.00;2.50;;;12.90;99.90;;;;;;5035347;28;20629;-75
2022/07/27 03:28:35;;;;;;;8.00;2.50;;;12.80;99.90;;;;;;5033948;28;20171;-75
2022/07/27 03:31:00;;;;;;;3.47;2.50;;;12.70;99.90;;;;;;5033883;28;20220;-75
2022/07/27 03:33:26;;;;;;;9.03;2.87;;;12.80;99.90;;;;;;5033736;28;20187;-75
2022/07/27 03:35:52;;;;;;;7.87;3.07;;;12.80;99.90;;;;;;5033852;28;20187;-75
2022/07/27 03:38:17;;;;;;;8.97;2.90;;;12.80;99.90;;;;;;5033808;28;20174;-75
2022/07/27 03:40:44;;;;;;;7.60;3.00;;;12.80;99.90;;;;;;5033821;28;20266;-75
2022/07/27 03:43:10;;;;;;;5.50;3.10;;;12.60;99.90;;;;;;5033549;28;20181;-75
2022/07/27 03:45:36;;;;;;;8.37;2.77;;;12.50;99.90;;;;;;5033497;28;20217;-75
2022/07/27 03:48:01;;;;;;;6.00;2.53;;;12.50;99.90;;;;;;5033781;28;20176;-75
2022/07/27 03:50:27;;;;;;;3.43;2.50;;;12.40;99.90;;;;;;5033583;28;20180;-75
2022/07/27 03:52:53;;;;;;;4.50;2.63;;;12.60;99.90;;;;;;5033320;28;20277;-75
2022/07/27 03:55:19;;;;;;;7.47;2.93;;;12.40;99.90;;;;;;5033411;28;20197;-75
2022/07/27 03:57:45;;;;;;;5.93;2.90;;;12.20;99.90;;;;;;5033426;28;20178;-75
2022/07/27 04:00:12;;;;;;;5.63;2.30;;;12.50;99.90;;;;;;5033431;28;20185;-75
2022/07/27 04:02:39;;;;;;;6.40;3.00;;;12.50;99.90;;;;;;5032700;28;20534;-75
2022/07/27 04:05:05;;;;;;;7.40;2.70;;;12.40;99.90;;;;;;5033141;28;20226;-75
2022/07/27 04:07:31;;;;;;;5.17;2.60;;;12.60;99.90;;;;;;5033498;28;20592;-75
2022/07/27 04:09:56;;;;;;;7.67;3.00;;;12.40;99.90;;;;;;5033303;28;20178;-75
2022/07/27 04:12:22;;;;;;;3.77;2.80;;;12.40;99.90;;;;;;5033027;28;20227;-76
2022/07/27 04:14:47;;;;;;;6.47;2.87;;;12.50;99.90;;;;;;5032626;28;20244;-76
2022/07/27 04:17:13;;;;;;;7.60;2.80;;;12.70;99.90;;;;;;5032693;28;20850;-76
2022/07/27 04:19:39;;;;;;;11.33;3.37;;;12.80;99.90;;;;;;5032817;28;20185;-78
2022/07/27 04:22:04;;;;;;;6.57;3.00;;;12.80;99.90;;;;;;5032205;28;20182;-76
2022/07/27 04:24:30;;;;;;;8.20;2.83;;;12.80;99.90;;;;;;5032265;28;20310;-76
2022/07/27 04:26:55;;;;;;;7.40;2.87;;;12.80;99.90;;;;;;5032898;28;20178;-77
2022/07/27 04:29:21;;;;;;;5.60;3.00;;;12.90;99.90;;;;;;5032910;28;20638;-78
2022/07/27 04:31:47;;;;;;;6.63;3.27;;;12.90;99.90;;;;;;5032535;28;20265;-76
2022/07/27 04:34:12;;;;;;;8.70;3.10;;;12.90;99.90;;;;;;5032766;28;20207;-76
2022/07/27 04:36:38;;;;;;;9.73;3.37;;;13.10;99.90;;;;;;5032717;28;20229;-76
2022/07/27 04:39:04;;;;;;;6.90;3.40;;;13.00;99.90;;;;;;5032629;28;20210;-76
2022/07/27 04:41:30;;;;;;;6.67;3.53;;;13.20;99.90;;;;;;5032376;28;20575;-76
2022/07/27 04:43:55;;;;;;;7.67;2.90;;;13.50;99.90;;;;;;5032514;28;20203;-76
2022/07/27 04:46:21;;;;;;;9.90;2.90;;;13.40;99.90;;;;;;5032555;28;20562;-76
2022/07/27 04:48:47;;;;;;;7.23;3.40;;;13.50;99.90;;;;;;5032515;28;20632;-76
2022/07/27 04:51:13;;;;;;;5.40;2.77;;;13.50;99.90;;;;;;5032314;28;20268;-76
2022/07/27 04:53:39;;;;;;;8.83;2.90;;;13.40;99.90;;;;;;5032309;28;20180;-76
2022/07/27 04:56:05;;;;;;;10.97;2.73;;;13.60;99.90;;;;;;5032325;28;20178;-76
2022/07/27 04:58:31;;;;;;;4.97;2.73;;;13.60;99.90;;;;;;5032382;28;20659;-76
2022/07/27 05:00:56;;;;;;;5.80;2.70;;;13.60;99.90;;;;;;5032075;28;20546;-76
2022/07/27 05:03:22;;;;;;;6.23;2.30;;;13.70;99.90;;;;;;5031896;28;20176;-78
2022/07/27 05:05:47;;;;;;;7.30;2.97;;;13.80;99.90;;;;;;5032232;28;20270;-76
2022/07/27 05:08:13;;;;;;;7.47;3.20;;;13.70;99.90;;;;;;5032177;28;20260;-76
2022/07/27 05:10:39;;;;;;;8.40;2.77;;;13.70;99.90;;;;;;5032259;28;20176;-76
2022/07/27 05:13:04;;;;;;;9.17;2.63;;;13.80;99.90;;;;;;5031779;28;20178;-77
2022/07/27 05:15:30;;;;;;;8.90;2.60;;;14.00;99.90;;;;;;5032064;28;20551;-76
2022/07/27 05:17:55;;;;;;;7.70;2.80;;;14.00;99.90;;;;;;5031726;28;20263;-76
2022/07/27 05:20:21;;;;;;;6.07;2.50;;;14.10;99.90;;;;;;5033379;28;20222;-76
2022/07/27 05:22:47;;;;;;;10.17;2.77;;;14.10;99.90;;;;;;5033125;28;20605;-76
2022/07/27 05:25:13;;;;;;;9.00;2.47;;;14.10;99.90;;;;;;5031771;28;20217;-76
2022/07/27 05:27:38;;;;;;;6.57;2.57;;;14.10;99.90;;;;;;5031892;28;20184;-76
2022/07/27 05:30:06;;;;;;;5.73;2.50;;;14.20;99.90;;;;;;5031730;28;20212;-77
2022/07/27 05:32:32;;;;;;;5.20;2.50;;;14.20;99.90;;;;;;5031719;28;20644;-76
2022/07/27 05:34:57;;;;;;;4.17;2.40;;;14.30;99.90;;;;;;5031492;28;20258;-77
2022/07/27 05:37:23;;;;;;;5.37;2.47;;;14.00;99.90;;;;;;5031583;28;20182;-77
2022/07/27 05:39:49;;;;;;;7.27;2.50;;;14.10;99.90;;;;;;5031539;28;20193;-76
2022/07/27 05:42:14;;;;;;;11.27;2.77;;;14.20;99.90;;;;;;5031327;28;20534;-76
2022/07/27 05:44:40;;;;;;;7.70;3.37;;;14.30;99.90;;;;;;5031203;28;20202;-77
2022/07/27 05:47:06;;;;;;;8.33;2.60;;;14.40;99.90;;;;;;5031360;28;20180;-76
2022/07/27 05:49:31;;;;;;;10.03;2.50;;;14.40;99.90;;;;;;5031296;28;20177;-77
2022/07/27 05:51:57;;;;;;;4.03;1.90;;;14.60;99.90;;;;;;5031066;28;20252;-78
2022/07/27 05:54:23;;;;;;;6.07;2.23;;;14.60;99.90;;;;;;5031193;28;20663;-76
2022/07/27 05:56:48;;;;;;;5.83;2.43;;;14.60;99.90;;;;;;5031213;28;20185;-76
2022/07/27 05:59:14;;;;;;;6.43;2.67;;;14.60;99.90;;;;;;5031201;28;20178;-76
2022/07/27 06:01:39;;;;;;;5.97;2.20;;;14.70;99.90;;;;;;5030959;28;20628;-78
2022/07/27 06:04:05;;;;;;;6.00;2.27;;;14.80;99.90;;;;;;5030787;28;20256;-76
2022/07/27 06:09:15;;;;;;;7.63;2.40;;;15.10;99.90;;;;;;5032678;28;20177;-76
2022/07/27 06:11:42;;;;;;;8.50;2.47;;;15.20;99.90;;;;;;5030721;28;20204;-77
2022/07/27 06:14:08;;;;;;;4.67;2.03;;;15.30;99.90;;;;;;5030430;28;20654;-76
2022/07/27 06:16:34;;;;;;;6.50;2.20;;;15.40;99.90;;;;;;5031044;28;20185;-76
2022/07/27 06:19:00;;;;;;;5.27;2.30;;;15.40;99.90;;;;;;5030625;28;20662;-77
2022/07/27 06:21:27;;;;;;;3.50;1.90;;;15.40;99.90;;;;;;5030460;28;20184;-77
2022/07/27 06:23:56;;;;;;;17.57;2.50;;;15.50;99.90;;;;;;5030664;28;20252;-77
2022/07/27 06:26:21;;;;;;;6.33;2.10;;;15.50;99.90;;;;;;5030659;28;20657;-77
2022/07/27 06:28:47;;;;;;;4.13;1.80;;;15.60;99.90;;;;;;5030752;28;20174;-77
2022/07/27 06:31:13;;;;;;;3.33;2.20;;;15.60;99.90;;;;;;5030589;28;20236;-78
2022/07/27 06:33:40;;;;;;;8.17;2.03;;;15.80;99.90;;;;;;5030707;28;20173;-77
2022/07/27 06:36:07;;;;;;;9.97;2.27;;;16.00;99.90;;;;;;5030876;28;20170;-78
2022/07/27 06:38:33;;;;;;;4.70;1.90;;;16.10;99.90;;;;;;5030621;28;20174;-79
2022/07/27 06:41:00;;;;;;;8.37;2.10;;;16.10;99.90;;;;;;5030418;28;20174;-78
2022/07/27 06:43:29;;;;;;;5.47;1.70;;;16.20;99.90;;;;;;5030686;28;20208;-77
2022/07/27 06:45:57;;;;;;;10.30;2.50;;;16.30;99.90;;;;;;5031253;28;20642;-77
2022/07/27 06:48:23;;;;;;;7.73;1.90;;;16.30;99.90;;;;;;5034817;28;20524;-77
2022/07/27 06:50:50;;;;;;;5.43;2.00;;;16.40;99.90;;;;;;5034673;28;20173;-77
2022/07/27 06:53:16;;;;;;;5.47;1.73;;;16.40;99.90;;;;;;5035816;28;20166;-77
2022/07/27 06:55:42;;;;;;;9.73;2.10;;;16.60;99.90;;;;;;5034410;28;20708;-77
2022/07/27 06:58:08;;;;;;;3.13;1.83;;;16.90;99.90;;;;;;5034555;28;20693;-77
2022/07/27 07:00:34;;;;;;;5.60;2.43;;;16.90;99.90;;;;;;5034606;28;20268;-77
2022/07/27 07:03:04;;;;;;;11.60;2.23;;;16.90;99.90;;;;;;5034182;28;20178;-78
2022/07/27 07:05:31;;;;;;;5.50;2.00;;;17.10;99.90;;;;;;5034347;28;20221;-77
2022/07/27 07:07:57;;;;;;;5.70;1.90;;;17.10;99.90;;;;;;5034362;28;20263;-76
2022/07/27 07:10:24;;;;;;;7.13;1.80;;;17.10;99.90;;;;;;5034300;28;20204;-77
2022/07/27 07:12:54;;;;;;;5.43;1.80;;;17.00;99.90;;;;;;5034112;28;20181;-76
2022/07/27 07:15:25;;;;;;;10.63;1.70;;;17.00;99.90;;;;;;5033611;28;20202;-78
2022/07/27 07:17:51;;;;;;;4.67;1.30;;;17.10;99.90;;;;;;5034039;28;20670;-76
2022/07/27 07:20:17;;;;;;;2.87;1.80;;;17.40;99.90;;;;;;5034119;28;20202;-76
2022/07/27 07:22:42;;;;;;;5.77;1.57;;;17.60;99.90;;;;;;5033937;28;20575;-77
2022/07/27 07:25:08;;;;;;;8.77;1.50;;;17.80;99.90;;;;;;5033725;28;20197;-77
2022/07/27 07:27:34;;;;;;;5.17;1.50;;;17.70;99.90;;;;;;5034200;28;20235;-77
2022/07/27 07:30:00;;;;;;;4.20;1.37;;;17.90;99.90;;;;;;5035307;28;20173;-77
2022/07/27 07:32:26;;;;;;;5.40;1.95;;;18.40;99.90;;;;;;5033799;28;20178;-77
2022/07/27 07:34:52;;;;;;;3.80;1.30;;;18.80;99.90;;;;;;5035292;28;20202;-78
2022/07/27 07:37:18;;;;;;;6.75;1.40;;;18.70;99.90;;;;;;5033967;28;20573;-77
2022/07/27 07:39:45;;;;;;;6.70;1.75;;;18.40;99.90;;;;;;5033707;28;20644;-76
2022/07/27 07:42:11;;;;;;;6.95;1.60;;;18.70;99.90;;;;;;5033937;28;20539;-75
2022/07/27 07:44:37;;;;;;;6.55;1.65;;;19.10;99.90;;;;;;5033552;28;20202;-76
2022/07/27 07:47:03;;;;;;;5.22;1.38;;;19.30;99.90;;;;;;5033759;28;20170;-75
2022/07/27 07:49:29;;;;;;;2.80;1.33;;;19.10;99.90;;;;;;5033722;28;20174;-75
2022/07/27 07:51:54;;;;;;;3.03;1.52;;;19.60;99.90;;;;;;5033361;28;20200;-76
2022/07/27 07:54:20;;;;;;;5.75;1.70;;;20.30;99.90;;;;;;5033565;28;20243;-75
2022/07/27 07:56:45;;;;;;;4.03;1.60;;;20.50;99.90;;;;;;5033256;28;20170;-76
2022/07/27 07:59:11;;;;;;;4.68;1.50;;;20.80;99.90;;;;;;5033442;28;20185;-76
2022/07/27 08:01:37;;;;;;;3.53;1.52;;;20.50;99.90;;;;;;5033219;28;20178;-76
2022/07/27 08:04:03;;;;;;;4.82;1.58;;;20.90;99.90;;;;;;5033239;28;20213;-76
2022/07/27 08:06:28;;;;;;;5.05;1.60;;;21.00;99.90;;;;;;5033351;28;20511;-76
2022/07/27 08:08:54;;;;;;;3.00;1.52;;;20.90;99.90;;;;;;5033151;28;20173;-76
2022/07/27 08:11:20;;;;;;;7.55;1.60;;;20.30;99.90;;;;;;5033152;28;20174;-76
2022/07/27 08:13:46;;;;;;;7.55;1.42;;;19.80;99.90;;;;;;5032782;28;20197;-76
2022/07/27 08:16:11;;;;;;;5.75;1.60;;;19.10;99.90;;;;;;5033189;28;20173;-76
2022/07/27 08:18:37;;;;;;;7.13;1.60;;;18.90;99.90;;;;;;5032800;28;20209;-76
2022/07/27 08:21:03;;;;;;;7.57;1.40;;;19.00;99.90;;;;;;5032730;28;20174;-76
2022/07/27 08:23:30;;;;;;;6.70;2.22;;;19.00;99.90;;;;;;5032724;28;20170;-75
2022/07/27 08:25:56;;;;;;;8.27;2.00;;;19.60;99.90;;;;;;5032948;28;20182;-75
2022/07/27 08:28:22;;;;;;;5.68;1.45;;;20.90;99.90;;;;;;5033033;28;20170;-75
2022/07/27 08:30:47;;;;;;;3.00;1.23;;;21.10;99.90;;;;;;5032946;28;20166;-75
2022/07/27 08:33:14;;;;;;;2.25;1.30;;;20.10;99.90;;;;;;5032645;28;20261;-76
2022/07/27 08:35:39;;;;;;;3.25;1.40;;;20.40;99.90;;;;;;5032730;28;20212;-75
2022/07/27 08:38:08;;;;;;;6.05;1.25;;;21.10;99.90;;;;;;5032752;28;20550;-76
2022/07/27 08:40:34;;;;;;;7.05;1.42;;;21.10;99.10;;;;;;5032674;28;20193;-76
2022/07/27 08:43:01;;;;;;;6.80;1.40;;;21.50;99.30;;;;;;5032561;28;20181;-76
2022/07/27 08:45:27;;;;;;;5.28;1.30;;;21.80;98.90;;;;;;5032405;28;20213;-76
2022/07/27 08:47:53;;;;;;;9.27;1.15;;;21.90;98.40;;;;;;5032638;28;20167;-76
2022/07/27 08:50:23;;;;;;;4.13;1.60;;;22.00;98.40;;;;;;5033669;28;20198;-76
2022/07/27 08:52:56;;;;;;;5.35;1.52;;;22.80;96.40;;;;;;5032346;28;20173;-76
2022/07/27 08:55:23;;;;;;;6.93;1.48;;;22.80;96.10;;;;;;5032465;28;20193;-76
2022/07/27 08:57:50;;;;;;;2.55;1.13;;;22.10;95.40;;;;;;5032546;28;20174;-76
2022/07/27 09:00:16;;;;;;;5.22;1.40;;;22.50;94.90;;;;;;5032391;28;20228;-76
2022/07/27 09:02:43;;;;;;;6.72;1.23;;;22.90;95.50;;;;;;5031911;28;20654;-76
2022/07/27 09:05:09;;;;;;;4.40;1.17;;;22.70;95.00;;;;;;5031970;28;20282;-76
2022/07/27 09:07:35;;;;;;;2.88;1.40;;;23.50;94.40;;;;;;5032140;28;20171;-76
2022/07/27 09:10:02;;;;;;;2.63;1.33;;;23.50;92.70;;;;;;5031405;28;20196;-76
2022/07/27 09:12:28;;;;;;;3.22;1.23;;;23.70;94.60;;;;;;5031914;28;20257;-76
2022/07/27 09:15:12;;;;;;;4.43;1.40;;;22.80;92.90;;;;;;5031623;28;20202;-76
2022/07/27 09:17:41;;;;;;;2.75;1.20;;;22.30;93.90;;;;;;5031738;28;20228;-76
2022/07/27 09:20:15;;;;;;;4.55;1.48;;;21.60;94.20;;;;;;5031744;28;20231;-76
2022/07/27 09:22:44;;;;;;;9.18;1.27;;;22.00;94.40;;;;;;5031749;28;20177;-76
2022/07/27 09:25:12;;;;;;;4.90;1.40;;;21.90;93.30;;;;;;5031429;28;20662;-75
2022/07/27 09:27:39;;;;;;;2.78;1.20;;;21.60;94.40;;;;;;5032133;28;20216;-76
2022/07/27 09:30:18;;;;;;;7.95;1.60;;;22.40;94.10;;;;;;5031787;28;20631;-76
2022/07/27 09:32:59;;;;;;;5.97;1.30;;;21.50;93.70;;;;;;5031541;28;20592;-76
2022/07/27 09:35:31;;;;;;;3.35;1.27;;;22.10;93.60;;;;;;5031589;28;20206;-76
2022/07/27 09:38:24;;;;;;;2.28;1.30;;;21.80;94.00;;;;;;5031713;28;20170;-76
2022/07/27 09:41:00;;;;;;;2.08;1.20;;;22.40;93.30;;;;;;5031540;28;20181;-76
2022/07/27 09:43:27;;;;;;;4.63;1.20;;;22.50;92.40;;;;;;5031525;28;20177;-76
2022/07/27 09:45:53;;;;;;;2.00;1.08;;;22.20;91.20;;;;;;5031542;28;20218;-76
2022/07/27 09:48:20;;;;;;;4.00;1.25;;;22.30;92.40;;;;;;5032895;28;20162;-76
2022/07/27 09:50:59;;;;;;;3.22;1.40;;;21.90;92.60;;;;;;5031360;28;20173;-76
2022/07/27 09:53:28;;;;;;;2.55;1.15;;;21.60;92.00;;;;;;5031190;28;20170;-76
2022/07/27 09:56:16;;;;;;;5.28;1.40;;;21.30;92.80;;;;;;5031382;28;20265;-76
2022/07/27 09:58:46;;;;;;;2.67;1.40;;;21.20;93.00;;;;;;5031339;28;20265;-76
2022/07/27 10:01:33;;;;;;;4.85;1.45;;;21.30;93.20;;;;;;5031011;28;20214;-76
2022/07/27 10:04:02;;;;;;;4.28;1.30;;;21.70;92.70;;;;;;5030990;28;20255;-76
2022/07/27 10:06:28;;;;;;;4.13;1.83;;;21.40;92.90;;;;;;5032569;28;20248;-75
2022/07/27 10:08:55;;;;;;;3.33;1.25;;;21.40;92.70;;;;;;5031170;28;20177;-76
2022/07/27 10:11:23;;;;;;;5.30;1.38;;;21.50;93.10;;;;;;5030850;28;20380;-76
2022/07/27 10:13:51;;;;;;;4.10;1.35;;;21.20;93.30;;;;;;5031002;28;20565;-75
2022/07/27 10:16:20;;;;;;;6.90;1.38;;;21.40;93.40;;;;;;5030993;28;20633;-75
2022/07/27 10:19:14;;;;;;;6.32;1.30;;;21.10;92.50;;;;;;5030603;28;20642;-75
2022/07/27 10:21:43;;;;;;;2.15;1.10;;;21.40;93.60;;;;;;5030840;28;20265;-75
2022/07/27 10:24:21;;;;;;;3.45;1.42;;;21.30;93.80;;;;;;5030780;28;20209;-75
2022/07/27 10:26:46;;;;;;;2.72;1.20;;;21.00;93.10;;;;;;5031408;28;20184;-75
2022/07/27 10:29:17;;;;;;;3.70;1.50;;;20.80;93.10;;;;;;5031042;28;20261;-75
2022/07/27 10:31:58;;;;;;;4.78;1.20;;;20.70;92.50;;;;;;5030736;28;20719;-75
2022/07/27 10:34:41;;;;;;;3.65;1.40;;;20.80;93.20;;;;;;5030608;28;20200;-76
2022/07/27 10:37:15;;;;;;;3.28;1.27;;;21.10;92.20;;;;;;5030686;28;20224;-75
2022/07/27 10:39:49;;;;;;;4.43;1.52;;;21.00;92.10;;;;;;5030546;28;20581;-75
2022/07/27 10:42:27;;;;;;;3.80;1.17;;;21.10;91.10;;;;;;5030429;28;20173;-75
2022/07/27 10:45:20;;;;;;;2.45;1.00;;;21.10;91.90;;;;;;5030426;28;20207;-76
2022/07/27 10:47:51;;;;;;;3.75;1.05;;;21.10;91.60;;;;;;5027329;28;20182;-75
2022/07/27 10:50:16;;;;;;;7.15;1.40;;;21.30;91.90;;;;;;5030676;28;20198;-75
2022/07/27 10:52:48;;;;;;;3.60;1.25;;;21.60;92.50;;;;;;5030365;28;20574;-75
2022/07/27 10:55:29;;;;;;;6.13;1.40;;;22.00;92.40;;;;;;5030563;28;20197;-75
2022/07/27 10:58:14;;;;;;;2.38;1.35;;;22.80;91.20;;;;;;5030613;28;20174;-76
2022/07/27 11:00:49;;;;;;;7.00;1.20;;;22.50;91.70;;;;;;5029846;28;20170;-76
2022/07/27 11:03:22;;;;;;;4.13;1.50;;;22.80;92.10;;;;;;5030186;28;20665;-76
2022/07/27 11:06:06;;;;;;;2.22;1.17;;;22.50;90.70;;;;;;5030341;28;20248;-75
2022/07/27 11:08:34;;;;;;;3.17;1.23;;;22.50;86.00;;;;;;5030584;28;20257;-76
2022/07/27 11:11:01;;;;;;;5.68;1.52;;;22.50;89.40;;;;;;5030447;28;20245;-76
2022/07/27 11:13:28;;;;;;;5.15;1.30;;;22.50;89.60;;;;;;5030050;28;20170;-75
2022/07/27 11:16:06;;;;;;;3.70;1.27;;;22.20;88.60;;;;;;5030357;28;20714;-75
2022/07/27 11:18:33;;;;;;;1.33;1.10;;;21.90;88.70;;;;;;5030150;28;20177;-76
2022/07/27 11:21:14;;;;;;;3.80;1.25;;;21.80;87.20;;;;;;5029962;28;20193;-76
2022/07/27 11:23:41;;;;;;;4.80;1.40;;;21.90;90.90;;;;;;5029940;28;20248;-75
2022/07/27 11:26:07;;;;;;;5.68;1.40;;;21.70;90.60;;;;;;5030651;28;20213;-76
2022/07/27 11:28:34;;;;;;;2.92;1.52;;;21.60;91.80;;;;;;5030267;28;20598;-76
2022/07/27 11:31:00;;;;;;;2.97;1.15;;;21.60;91.50;;;;;;5030163;28;20174;-75
2022/07/27 11:33:26;;;;;;;7.55;1.48;;;21.20;91.70;;;;;;5032866;28;20177;-75
2022/07/27 11:36:00;;;;;;;3.28;1.40;;;21.20;92.10;;;;;;5034053;28;20178;-75
2022/07/27 11:38:26;;;;;;;3.95;1.20;;;21.00;91.80;;;;;;5033841;28;20181;-76
2022/07/27 11:40:53;;;;;;;3.65;1.40;;;21.00;92.30;;;;;;5033841;28;20268;-75
2022/07/27 11:43:35;;;;;;;5.15;1.08;;;21.10;91.70;;;;;;5033562;28;20220;-75
2022/07/27 11:46:16;;;;;;;4.70;1.80;;;21.60;93.00;;;;;;5033697;28;20212;-75
2022/07/27 11:48:54;;;;;;;4.50;1.20;;;21.40;91.20;;;;;;5033735;28;20198;-75
2022/07/27 11:51:20;;;;;;;5.00;1.27;;;21.80;90.10;;;;;;5033528;28;20174;-75
2022/07/27 11:53:46;;;;;;;2.05;1.10;;;22.20;90.30;;;;;;5033612;28;20198;-75
2022/07/27 11:56:19;;;;;;;3.80;1.50;;;22.30;88.30;;;;;;5033547;28;20518;-75
2022/07/27 11:59:02;;;;;;;3.50;1.10;;;22.30;90.40;;;;;;5033598;28;20630;-76
2022/07/27 12:01:32;;;;;;;2.88;1.20;;;22.70;90.00;;;;;;5033131;28;20611;-75
2022/07/27 12:04:08;;;;;;;6.70;1.40;;;22.90;90.30;;;;;;5033228;28;20267;-75
2022/07/27 12:06:36;;;;;;;2.95;1.50;;;22.30;86.50;;;;;;5033314;28;20601;-75
2022/07/27 12:09:03;;;;;;;4.72;1.30;;;23.10;90.60;;;;;;5033268;28;20170;-76
2022/07/27 12:11:42;;;;;;;2.20;1.20;;;22.70;90.50;;;;;;5033126;28;20166;-75
2022/07/27 12:14:16;;;;;;;4.00;1.25;;;22.80;89.40;;;;;;5032852;28;20204;-76
2022/07/27 12:16:42;;;;;;;5.78;1.60;;;22.30;90.30;;;;;;5033158;28;20235;-76
2022/07/27 12:19:08;;;;;;;3.80;1.40;;;22.10;91.20;;;;;;5032719;28;20220;-75
2022/07/27 12:21:34;;;;;;;4.20;1.42;;;22.00;92.30;;;;;;5032785;28;20272;-75
2022/07/27 12:23:59;;;;;;;4.32;1.42;;;21.80;92.20;;;;;;5034014;28;20198;-75
2022/07/27 12:26:25;;;;;;;5.97;1.45;;;21.80;92.40;;;;;;5033090;28;20308;-76
2022/07/27 12:29:11;;;;;;;5.03;1.10;;;21.70;92.30;;;;;;5034185;28;20174;-75
2022/07/27 12:31:47;;;;;;;6.15;1.65;;;21.50;92.70;;;;;;5032678;28;20700;-75
2022/07/27 12:34:13;;;;;;;1.98;1.13;;;21.60;93.30;;;;;;5032832;28;20566;-75
2022/07/27 12:36:41;;;;;;;3.35;1.52;;;21.50;92.00;;;;;;5032875;28;20235;-76
2022/07/27 12:39:07;;;;;;;7.57;1.88;;;21.70;91.70;;;;;;5032757;28;20271;-75
2022/07/27 12:41:38;;;;;;;9.02;1.60;;;22.00;92.60;;;;;;5032482;28;20178;-76
2022/07/27 12:44:04;;;;;;;4.15;1.27;;;21.90;91.60;;;;;;5031535;28;20297;-76
2022/07/27 12:46:30;;;;;;;4.53;1.50;;;21.80;92.60;;;;;;5032661;28;20261;-75
2022/07/27 12:48:55;;;;;;;3.35;1.20;;;21.50;90.30;;;;;;5032706;28;20178;-75
2022/07/27 12:51:24;;;;;;;4.13;1.30;;;21.70;91.20;;;;;;5032263;28;20264;-75
2022/07/27 12:53:50;;;;;;;5.50;1.33;;;22.00;91.50;;;;;;5032392;28;20194;-75